Time;durP1;ratioP1;P1;durP2;ratioP2;P2;SDS_P1;SDS_P2;PMS_P1;PMS_P2;Temp;Humidity;BMP_temperature;BMP_pressure;BME280_temperature;BME280_humidity;BME280_pressure;Samples;Min_cycle;Max_cycle;Signal;HPM_P1;HPM_P2
2024/02/22 00:01:54;;;;;;;13.88;7.82;;;;;;;;;;5074548;28;20447;-70
2024/02/22 00:04:39;;;;;;;18.40;9.10;;;;;;;;;;5073572;28;20453;-70
2024/02/22 00:07:25;;;;;;;20.02;11.43;;;;;;;;;;5070155;28;20020;-69
2024/02/22 00:10:12;;;;;;;19.13;9.40;;;;;;;;;;5054894;28;20025;-70
2024/02/22 00:13:01;;;;;;;13.65;8.27;;;;;;;;;;5054101;28;21065;-70
2024/02/22 00:15:46;;;;;;;18.30;8.82;;;;;;;;;;5054332;28;20036;-70
2024/02/22 00:18:33;;;;;;;20.35;9.40;;;;;;;;;;5054327;28;20482;-70
2024/02/22 00:21:18;;;;;;;15.55;9.13;;;;;;;;;;5052839;28;20565;-70
2024/02/22 00:24:05;;;;;;;14.07;8.90;;;;;;;;;;5054449;28;20061;-70
2024/02/22 00:26:51;;;;;;;15.93;9.85;;;;;;;;;;5057603;28;20033;-70
2024/02/22 00:29:27;;;;;;;15.32;8.68;;;;;;;;;;5081500;23;20052;-70
2024/02/22 00:32:12;;;;;;;16.90;9.30;;;;;;;;;;5073778;28;20040;-69
2024/02/22 00:34:58;;;;;;;15.60;8.40;;;;;;;;;;5076679;28;20081;-70
2024/02/22 00:37:44;;;;;;;16.20;8.23;;;;;;;;;;5073420;28;20112;-70
2024/02/22 00:40:29;;;;;;;17.60;9.25;;;;;;;;;;5059314;28;20052;-70
2024/02/22 00:43:15;;;;;;;20.10;9.45;;;;;;;;;;5052463;28;20033;-69
2024/02/22 00:46:01;;;;;;;10.80;7.25;;;;;;;;;;5058590;28;20555;-70
2024/02/22 00:48:46;;;;;;;14.90;9.00;;;;;;;;;;5040429;28;20031;-70
2024/02/22 00:51:37;;;;;;;12.68;8.15;;;;;;;;;;5037768;28;20147;-70
2024/02/22 00:54:23;;;;;;;14.23;7.30;;;;;;;;;;5059137;28;20394;-70
2024/02/22 00:57:09;;;;;;;14.88;9.13;;;;;;;;;;5073162;28;20031;-70
2024/02/22 00:59:54;;;;;;;15.13;8.38;;;;;;;;;;5073474;28;20031;-70
2024/02/22 01:02:40;;;;;;;13.77;8.02;;;;;;;;;;5073218;28;20016;-70
2024/02/22 01:05:26;;;;;;;17.90;9.05;;;;;;;;;;5044376;28;20024;-69
2024/02/22 01:08:12;;;;;;;12.00;6.50;;;;;;;;;;5073314;28;20447;-70
2024/02/22 01:10:57;;;;;;;15.70;8.18;;;;;;;;;;5073709;28;20098;-70
2024/02/22 01:13:43;;;;;;;15.82;8.27;;;;;;;;;;5073412;28;20103;-70
2024/02/22 01:16:28;;;;;;;13.40;8.60;;;;;;;;;;5072779;28;20052;-70
2024/02/22 01:19:15;;;;;;;14.82;8.55;;;;;;;;;;5059271;28;20028;-70
2024/02/22 01:22:04;;;;;;;11.68;7.57;;;;;;;;;;5060331;28;20118;-70
2024/02/22 01:24:49;;;;;;;13.02;7.65;;;;;;;;;;5073021;28;20058;-69
2024/02/22 01:27:35;;;;;;;13.50;7.65;;;;;;;;;;5073630;28;20021;-70
2024/02/22 01:30:21;;;;;;;15.05;7.93;;;;;;;;;;5073513;28;20107;-70
2024/02/22 01:33:08;;;;;;;11.40;7.03;;;;;;;;;;5072693;28;20485;-70
2024/02/22 01:35:53;;;;;;;10.45;6.70;;;;;;;;;;5045774;28;20029;-70
2024/02/22 01:38:39;;;;;;;12.93;7.25;;;;;;;;;;5073119;28;20025;-70
2024/02/22 01:41:24;;;;;;;14.43;7.35;;;;;;;;;;5044882;28;20557;-70
2024/02/22 01:44:10;;;;;;;12.38;7.43;;;;;;;;;;5072323;28;20032;-70
2024/02/22 01:46:57;;;;;;;12.90;7.05;;;;;;;;;;5074543;28;20025;-70
2024/02/22 01:49:43;;;;;;;11.23;6.68;;;;;;;;;;5074915;28;20452;-70
2024/02/22 01:52:29;;;;;;;11.70;7.10;;;;;;;;;;5060298;28;20544;-70
2024/02/22 01:55:16;;;;;;;14.75;6.32;;;;;;;;;;5072984;28;20434;-70
2024/02/22 01:58:02;;;;;;;14.63;7.93;;;;;;;;;;5057468;28;20020;-70
2024/02/22 02:00:48;;;;;;;12.02;6.78;;;;;;;;;;5057798;28;20504;-70
2024/02/22 02:03:33;;;;;;;14.77;6.82;;;;;;;;;;5073097;28;20501;-70
2024/02/22 02:06:19;;;;;;;14.63;8.60;;;;;;;;;;5058259;28;20100;-70
2024/02/22 02:09:05;;;;;;;11.35;6.97;;;;;;;;;;5072627;28;20020;-70
2024/02/22 02:11:50;;;;;;;14.63;8.07;;;;;;;;;;5072930;28;20042;-70
2024/02/22 02:14:36;;;;;;;12.60;5.88;;;;;;;;;;5058209;28;20379;-70
2024/02/22 02:17:21;;;;;;;12.18;6.78;;;;;;;;;;5058354;28;20021;-70
2024/02/22 02:20:09;;;;;;;10.85;6.10;;;;;;;;;;5072801;28;20029;-70
2024/02/22 02:23:11;;;;;;;15.80;7.10;;;;;;;;;;5072907;28;20024;-70
2024/02/22 02:25:57;;;;;;;11.70;6.43;;;;;;;;;;5060038;28;20028;-70
2024/02/22 02:28:43;;;;;;;9.38;5.85;;;;;;;;;;5072220;28;20020;-70
2024/02/22 02:31:28;;;;;;;11.25;7.68;;;;;;;;;;5057868;28;20032;-70
2024/02/22 02:34:14;;;;;;;11.25;6.03;;;;;;;;;;5056673;28;20074;-70
2024/02/22 02:37:00;;;;;;;10.35;6.40;;;;;;;;;;5073271;28;20478;-70
2024/02/22 02:39:45;;;;;;;10.18;6.25;;;;;;;;;;5056946;28;20043;-70
2024/02/22 02:42:31;;;;;;;7.40;5.63;;;;;;;;;;5044857;28;20016;-70
2024/02/22 02:45:17;;;;;;;12.38;7.32;;;;;;;;;;5046500;28;20022;-70
2024/02/22 02:48:02;;;;;;;9.48;5.90;;;;;;;;;;5063487;28;20550;-70
2024/02/22 02:50:48;;;;;;;10.60;6.25;;;;;;;;;;5041620;28;20021;-70
2024/02/22 02:53:34;;;;;;;10.70;6.97;;;;;;;;;;5062012;28;20093;-70
2024/02/22 02:56:19;;;;;;;8.88;5.93;;;;;;;;;;5075625;28;20020;-70
2024/02/22 02:59:05;;;;;;;7.90;5.15;;;;;;;;;;5075253;28;20052;-70
2024/02/22 03:01:51;;;;;;;9.90;6.13;;;;;;;;;;5075557;28;20052;-70
2024/02/22 03:04:37;;;;;;;10.23;6.57;;;;;;;;;;5060214;28;20074;-70
2024/02/22 03:07:25;;;;;;;9.77;5.95;;;;;;;;;;5075596;28;20044;-70
2024/02/22 03:10:11;;;;;;;9.32;6.45;;;;;;;;;;5060161;28;20551;-70
2024/02/22 03:12:56;;;;;;;9.85;6.05;;;;;;;;;;5075067;28;20020;-70
2024/02/22 03:15:42;;;;;;;9.73;5.40;;;;;;;;;;5074758;28;20025;-70
2024/02/22 03:18:28;;;;;;;13.63;6.13;;;;;;;;;;5075194;28;20078;-70
2024/02/22 03:21:13;;;;;;;10.13;6.22;;;;;;;;;;5075561;28;20115;-70
2024/02/22 03:23:59;;;;;;;7.93;5.70;;;;;;;;;;5074836;28;20028;-70
2024/02/22 03:26:46;;;;;;;11.95;6.55;;;;;;;;;;5075482;28;20028;-70
2024/02/22 03:29:31;;;;;;;10.85;6.00;;;;;;;;;;5075128;28;20032;-70
2024/02/22 03:32:17;;;;;;;11.45;6.22;;;;;;;;;;5075257;28;20082;-70
2024/02/22 03:35:05;;;;;;;11.50;6.10;;;;;;;;;;5075127;28;20025;-70
2024/02/22 03:37:55;;;;;;;8.65;5.63;;;;;;;;;;5062513;28;20481;-70
2024/02/22 03:40:41;;;;;;;11.98;6.10;;;;;;;;;;5074852;28;20036;-70
2024/02/22 03:43:26;;;;;;;14.13;6.88;;;;;;;;;;5073650;28;20028;-70
2024/02/22 03:46:12;;;;;;;12.77;7.38;;;;;;;;;;5075201;28;20025;-70
2024/02/22 03:49:00;;;;;;;14.02;7.35;;;;;;;;;;5074373;28;20074;-70
2024/02/22 03:51:46;;;;;;;10.48;6.57;;;;;;;;;;5073753;28;20032;-70
2024/02/22 03:54:34;;;;;;;14.90;8.38;;;;;;;;;;5074436;28;20063;-70
2024/02/22 03:57:19;;;;;;;11.45;6.07;;;;;;;;;;5076264;28;20107;-70
2024/02/22 04:00:08;;;;;;;15.98;6.97;;;;;;;;;;5074671;28;20101;-70
2024/02/22 04:02:54;;;;;;;14.95;7.25;;;;;;;;;;5074148;28;20078;-70
2024/02/22 04:05:39;;;;;;;13.10;7.88;;;;;;;;;;5061681;28;20042;-70
2024/02/22 04:08:25;;;;;;;15.38;8.23;;;;;;;;;;5058748;28;20028;-70
2024/02/22 04:11:11;;;;;;;16.40;8.23;;;;;;;;;;5070249;28;20056;-70
2024/02/22 04:13:56;;;;;;;14.90;6.97;;;;;;;;;;5067683;28;20107;-69
2024/02/22 04:16:42;;;;;;;16.98;8.05;;;;;;;;;;5056865;28;20016;-69
2024/02/22 04:19:28;;;;;;;14.80;7.25;;;;;;;;;;5059504;28;20508;-70
2024/02/22 04:22:13;;;;;;;14.70;7.28;;;;;;;;;;5065376;28;20485;-70
2024/02/22 04:24:59;;;;;;;16.13;8.90;;;;;;;;;;5039532;28;20021;-70
2024/02/22 04:27:44;;;;;;;19.58;7.60;;;;;;;;;;5057218;28;20028;-69
2024/02/22 04:30:30;;;;;;;15.57;7.05;;;;;;;;;;5071485;28;20440;-70
2024/02/22 04:33:16;;;;;;;16.80;8.40;;;;;;;;;;5073164;28;20017;-70
2024/02/22 04:36:02;;;;;;;15.40;8.15;;;;;;;;;;5073516;28;20024;-70
2024/02/22 04:38:47;;;;;;;19.65;8.43;;;;;;;;;;5050901;28;20025;-70
2024/02/22 04:41:34;;;;;;;17.95;8.27;;;;;;;;;;5060612;28;20016;-69
2024/02/22 04:44:19;;;;;;;16.10;8.35;;;;;;;;;;5058640;28;20158;-70
2024/02/22 04:47:05;;;;;;;17.25;6.68;;;;;;;;;;5057003;28;20428;-69
2024/02/22 04:49:53;;;;;;;15.25;7.50;;;;;;;;;;5052204;28;20031;-70
2024/02/22 04:52:39;;;;;;;15.80;7.13;;;;;;;;;;5041871;28;20127;-69
2024/02/22 04:55:25;;;;;;;16.92;8.18;;;;;;;;;;5044114;28;20029;-70
2024/02/22 04:58:11;;;;;;;17.23;9.73;;;;;;;;;;5058005;28;20102;-70
2024/02/22 05:00:57;;;;;;;17.10;7.53;;;;;;;;;;5052942;28;20032;-70
2024/02/22 05:03:42;;;;;;;18.88;8.00;;;;;;;;;;5052110;28;20478;-70
2024/02/22 05:06:28;;;;;;;18.73;9.07;;;;;;;;;;5072948;28;20494;-70
2024/02/22 05:09:14;;;;;;;20.35;9.52;;;;;;;;;;5072469;28;20024;-69
2024/02/22 05:12:00;;;;;;;18.20;8.18;;;;;;;;;;5072937;28;20024;-70
2024/02/22 05:14:45;;;;;;;16.13;7.60;;;;;;;;;;5072934;28;20020;-70
2024/02/22 05:17:31;;;;;;;18.75;7.95;;;;;;;;;;5058289;28;20028;-70
2024/02/22 05:20:19;;;;;;;21.08;8.95;;;;;;;;;;5072257;28;20060;-70
2024/02/22 05:23:08;;;;;;;20.13;9.13;;;;;;;;;;5072425;28;20020;-70
2024/02/22 05:25:54;;;;;;;21.70;9.35;;;;;;;;;;5073401;28;20028;-70
2024/02/22 05:28:39;;;;;;;20.38;8.80;;;;;;;;;;5072253;28;20563;-70
2024/02/22 05:31:27;;;;;;;21.20;8.38;;;;;;;;;;5072979;28;20404;-70
2024/02/22 05:34:13;;;;;;;25.42;9.98;;;;;;;;;;5074054;28;20051;-70
2024/02/22 05:36:58;;;;;;;24.77;10.32;;;;;;;;;;5072257;28;20031;-70
2024/02/22 05:39:44;;;;;;;21.85;8.95;;;;;;;;;;5059460;28;20067;-69
2024/02/22 05:42:31;;;;;;;21.02;9.60;;;;;;;;;;5058691;28;20107;-70
2024/02/22 05:45:32;;;;;;;24.85;9.35;;;;;;;;;;5057770;28;20017;-70
2024/02/22 05:48:18;;;;;;;27.67;10.35;;;;;;;;;;5060220;28;20031;-70
2024/02/22 05:51:04;;;;;;;27.48;11.30;;;;;;;;;;5073387;28;20103;-70
2024/02/22 05:53:51;;;;;;;26.02;10.88;;;;;;;;;;5072359;28;20105;-70
2024/02/22 05:56:37;;;;;;;27.20;9.02;;;;;;;;;;5072556;28;20428;-70
2024/02/22 05:59:24;;;;;;;29.55;11.88;;;;;;;;;;5072675;28;20465;-70
2024/02/22 06:02:09;;;;;;;24.95;10.38;;;;;;;;;;5057655;28;20032;-70
2024/02/22 06:04:55;;;;;;;26.63;10.32;;;;;;;;;;5057434;28;20024;-70
2024/02/22 06:07:43;;;;;;;24.50;9.60;;;;;;;;;;5072457;28;20021;-70
2024/02/22 06:10:29;;;;;;;22.20;8.88;;;;;;;;;;5058823;28;20082;-70
2024/02/22 06:13:14;;;;;;;20.67;8.80;;;;;;;;;;5057266;28;20032;-70
2024/02/22 06:16:00;;;;;;;20.48;8.40;;;;;;;;;;5057880;28;20029;-70
2024/02/22 06:18:45;;;;;;;14.77;6.57;;;;;;;;;;5056368;28;20048;-70
2024/02/22 06:21:31;;;;;;;17.80;6.85;;;;;;;;;;5076602;28;20031;-70
2024/02/22 06:24:17;;;;;;;13.88;6.35;;;;;;;;;;5075029;28;20401;-70
2024/02/22 06:29:28;;;;;;;12.80;5.10;;;;;;;;;;5084112;22;20524;-70
2024/02/22 06:32:13;;;;;;;10.50;5.50;;;;;;;;;;5083737;28;20027;-70
2024/02/22 06:34:59;;;;;;;12.10;5.30;;;;;;;;;;5095767;28;20502;-69
2024/02/22 06:37:45;;;;;;;14.77;5.65;;;;;;;;;;5096450;28;20035;-70
2024/02/22 06:40:30;;;;;;;16.58;5.85;;;;;;;;;;5095551;28;20077;-70
2024/02/22 06:43:16;;;;;;;12.38;5.60;;;;;;;;;;5095360;28;20053;-70
2024/02/22 06:46:03;;;;;;;14.32;5.78;;;;;;;;;;5091617;28;20024;-69
2024/02/22 06:48:49;;;;;;;11.98;5.07;;;;;;;;;;5095510;28;20027;-70
2024/02/22 06:51:43;;;;;;;13.68;4.80;;;;;;;;;;5096657;28;20024;-70
2024/02/22 06:54:30;;;;;;;14.77;5.97;;;;;;;;;;5095641;28;20016;-70
2024/02/22 06:57:16;;;;;;;17.70;6.45;;;;;;;;;;5095540;28;20031;-70
2024/02/22 07:00:02;;;;;;;18.75;6.82;;;;;;;;;;5089726;28;20043;-70
2024/02/22 07:02:48;;;;;;;15.82;6.97;;;;;;;;;;5083188;28;20020;-70
2024/02/22 07:05:33;;;;;;;15.98;5.53;;;;;;;;;;5094054;28;20028;-70
2024/02/22 07:08:19;;;;;;;17.42;6.22;;;;;;;;;;5094093;28;20474;-70
2024/02/22 07:11:05;;;;;;;16.60;7.05;;;;;;;;;;5090932;28;20028;-70
2024/02/22 07:13:51;;;;;;;11.80;5.80;;;;;;;;;;5089480;28;20024;-70
2024/02/22 07:16:36;;;;;;;15.90;6.30;;;;;;;;;;5079664;28;20162;-69
2024/02/22 07:19:22;;;;;;;20.90;7.72;;;;;;;;;;5095401;28;20078;-70
2024/02/22 07:22:08;;;;;;;21.80;6.25;;;;;;;;;;5095561;28;20455;-70
2024/02/22 07:24:53;;;;;;;19.52;6.47;;;;;;;;;;5096053;28;20465;-70
2024/02/22 07:27:40;;;;;;;28.77;7.75;;;;;;;;;;5095037;28;20024;-70
2024/02/22 07:30:27;;;;;;;18.25;5.03;;;;;;;;;;5094877;28;20389;-70
2024/02/22 07:33:13;;;;;;;23.02;5.95;;;;;;;;;;5093951;28;20024;-70
2024/02/22 07:35:58;;;;;;;15.10;5.13;;;;;;;;;;5095656;28;20393;-70
2024/02/22 07:38:46;;;;;;;34.03;7.07;;;;;;;;;;5094511;28;20028;-70
2024/02/22 07:41:31;;;;;;;17.33;5.72;;;;;;;;;;5093266;28;20020;-70
2024/02/22 07:44:17;;;;;;;20.00;5.13;;;;;;;;;;5095005;28;20445;-70
2024/02/22 07:47:02;;;;;;;27.77;6.50;;;;;;;;;;5093715;28;20107;-70
2024/02/22 07:49:48;;;;;;;14.13;4.97;;;;;;;;;;5094459;28;20370;-70
2024/02/22 07:52:34;;;;;;;17.50;5.80;;;;;;;;;;5094566;28;20545;-70
2024/02/22 07:55:19;;;;;;;16.10;4.13;;;;;;;;;;5093618;28;20443;-69
2024/02/22 07:58:05;;;;;;;15.75;5.88;;;;;;;;;;5093805;28;20024;-70
2024/02/22 08:00:52;;;;;;;19.70;5.30;;;;;;;;;;5093560;28;20027;-70
2024/02/22 08:03:41;;;;;;;16.75;6.25;;;;;;;;;;5094619;28;20023;-70
2024/02/22 08:06:27;;;;;;;17.00;5.97;;;;;;;;;;5092823;28;20031;-70
2024/02/22 08:09:13;;;;;;;17.55;4.70;;;;;;;;;;5093190;28;20024;-70
2024/02/22 08:11:58;;;;;;;16.10;5.45;;;;;;;;;;5079075;28;20060;-70
2024/02/22 08:14:47;;;;;;;11.45;5.75;;;;;;;;;;5078457;28;20115;-70
2024/02/22 08:17:35;;;;;;;25.77;6.22;;;;;;;;;;5079071;28;20463;-70
2024/02/22 08:20:20;;;;;;;20.70;5.55;;;;;;;;;;5092872;28;20102;-70
2024/02/22 08:23:08;;;;;;;25.35;6.63;;;;;;;;;;5092406;28;20052;-70
2024/02/22 08:25:55;;;;;;;31.95;6.82;;;;;;;;;;5093353;28;20028;-70
2024/02/22 08:28:40;;;;;;;24.73;6.50;;;;;;;;;;5092300;28;20103;-70
2024/02/22 08:31:26;;;;;;;15.82;6.03;;;;;;;;;;5077269;28;20027;-70
2024/02/22 08:34:12;;;;;;;20.42;6.28;;;;;;;;;;5093388;28;20020;-70
2024/02/22 08:36:57;;;;;;;16.30;6.60;;;;;;;;;;5094182;28;20058;-70
2024/02/22 08:39:43;;;;;;;16.85;6.05;;;;;;;;;;5074191;28;20036;-69
2024/02/22 08:42:29;;;;;;;21.80;7.90;;;;;;;;;;5078704;28;20047;-70
2024/02/22 08:45:16;;;;;;;19.88;6.03;;;;;;;;;;5075413;28;20044;-69
2024/02/22 08:48:02;;;;;;;18.92;6.05;;;;;;;;;;5079973;28;20065;-70
2024/02/22 08:50:48;;;;;;;12.65;5.13;;;;;;;;;;5093471;28;20031;-69
2024/02/22 08:53:33;;;;;;;18.38;5.68;;;;;;;;;;5067989;28;20021;-70
2024/02/22 08:56:19;;;;;;;12.43;4.60;;;;;;;;;;5060535;28;20021;-70
2024/02/22 08:59:05;;;;;;;10.95;5.05;;;;;;;;;;5058032;28;20039;-70
2024/02/22 09:01:50;;;;;;;10.63;4.85;;;;;;;;;;5072960;28;20017;-70
2024/02/22 09:04:36;;;;;;;9.63;4.30;;;;;;;;;;5073778;28;20052;-70
2024/02/22 09:07:22;;;;;;;9.93;4.25;;;;;;;;;;5070614;28;20095;-69
2024/02/22 09:10:08;;;;;;;14.07;5.07;;;;;;;;;;5073222;28;20030;-69
2024/02/22 09:12:53;;;;;;;11.18;4.32;;;;;;;;;;5069479;28;20448;-70
2024/02/22 09:15:39;;;;;;;9.70;4.57;;;;;;;;;;5071025;28;20494;-70
2024/02/22 09:18:25;;;;;;;8.23;4.30;;;;;;;;;;5072261;28;20056;-70
2024/02/22 09:21:10;;;;;;;11.43;4.57;;;;;;;;;;5059590;28;20028;-70
2024/02/22 09:23:56;;;;;;;9.27;3.63;;;;;;;;;;5052092;28;20471;-70
2024/02/22 09:26:44;;;;;;;10.65;4.28;;;;;;;;;;5066760;28;20032;-70
2024/02/22 09:29:30;;;;;;;9.82;4.47;;;;;;;;;;5051856;28;20085;-70
2024/02/22 09:32:16;;;;;;;14.63;4.60;;;;;;;;;;5052251;28;20056;-70
2024/02/22 09:35:01;;;;;;;13.60;4.93;;;;;;;;;;5058294;28;20506;-70
2024/02/22 09:37:47;;;;;;;12.57;5.13;;;;;;;;;;5066322;28;20032;-70
2024/02/22 09:40:33;;;;;;;14.77;5.53;;;;;;;;;;5054529;28;20031;-70
2024/02/22 09:43:19;;;;;;;14.70;5.47;;;;;;;;;;5058950;28;20107;-70
2024/02/22 09:46:05;;;;;;;18.35;5.72;;;;;;;;;;5051757;28;20021;-70
2024/02/22 09:48:51;;;;;;;13.38;4.95;;;;;;;;;;5040507;28;20020;-69
2024/02/22 09:51:36;;;;;;;12.00;5.60;;;;;;;;;;5038551;28;20060;-69
2024/02/22 09:54:22;;;;;;;14.30;5.40;;;;;;;;;;5039095;28;20025;-70
2024/02/22 09:57:10;;;;;;;17.75;6.45;;;;;;;;;;5080967;28;20055;-70
2024/02/22 09:59:57;;;;;;;17.17;5.85;;;;;;;;;;5070688;28;20028;-69
2024/02/22 10:02:45;;;;;;;15.68;6.88;;;;;;;;;;5054270;28;20050;-70
2024/02/22 10:05:37;;;;;;;17.17;7.15;;;;;;;;;;5081095;28;20024;-70
2024/02/22 10:08:23;;;;;;;20.08;7.00;;;;;;;;;;5085798;28;20031;-70
2024/02/22 10:11:09;;;;;;;13.93;5.95;;;;;;;;;;5056499;28;20029;-70
2024/02/22 10:13:58;;;;;;;22.30;7.10;;;;;;;;;;5055774;28;20036;-69
2024/02/22 10:16:45;;;;;;;14.95;5.60;;;;;;;;;;5071074;28;20024;-70
2024/02/22 10:19:31;;;;;;;15.82;5.30;;;;;;;;;;5054968;28;20115;-70
2024/02/22 10:22:24;;;;;;;19.95;7.07;;;;;;;;;;5055846;28;20036;-69
2024/02/22 10:25:12;;;;;;;16.45;6.72;;;;;;;;;;5060492;28;20067;-70
2024/02/22 10:27:58;;;;;;;21.27;6.43;;;;;;;;;;5072958;28;20047;-70
2024/02/22 10:30:44;;;;;;;14.77;5.97;;;;;;;;;;5074240;28;20401;-70
2024/02/22 10:33:30;;;;;;;18.88;5.65;;;;;;;;;;5050873;28;20021;-70
2024/02/22 10:36:16;;;;;;;16.67;6.63;;;;;;;;;;5056586;28;20147;-70
2024/02/22 10:39:03;;;;;;;14.63;5.85;;;;;;;;;;5079606;28;20031;-70
2024/02/22 10:41:50;;;;;;;18.23;5.57;;;;;;;;;;5095833;28;20038;-70
2024/02/22 10:44:36;;;;;;;14.50;6.18;;;;;;;;;;5080460;28;20107;-70
2024/02/22 10:47:22;;;;;;;16.55;5.90;;;;;;;;;;5055585;28;20021;-70
2024/02/22 10:50:07;;;;;;;20.02;5.90;;;;;;;;;;5057967;28;20020;-70
2024/02/22 10:52:54;;;;;;;14.80;5.53;;;;;;;;;;5095738;28;20107;-70
2024/02/22 10:55:47;;;;;;;17.08;6.53;;;;;;;;;;5079982;28;20090;-70
2024/02/22 10:58:36;;;;;;;18.00;6.63;;;;;;;;;;5093112;28;20146;-70
2024/02/22 11:01:22;;;;;;;13.40;5.65;;;;;;;;;;5093470;28;20505;-70
2024/02/22 11:04:08;;;;;;;14.57;6.40;;;;;;;;;;5070758;28;20032;-70
2024/02/22 11:06:53;;;;;;;19.38;6.65;;;;;;;;;;5070006;28;20067;-70
2024/02/22 11:09:40;;;;;;;19.98;5.72;;;;;;;;;;5053547;28;20490;-69
2024/02/22 11:12:30;;;;;;;13.90;4.75;;;;;;;;;;5055834;28;20025;-70
2024/02/22 11:15:16;;;;;;;14.00;5.60;;;;;;;;;;5072309;28;20103;-70
2024/02/22 11:18:02;;;;;;;14.40;5.60;;;;;;;;;;5074140;28;20021;-70
2024/02/22 11:20:48;;;;;;;11.18;5.03;;;;;;;;;;5077867;28;20024;-70
2024/02/22 11:23:34;;;;;;;11.95;4.43;;;;;;;;;;5074138;28;20115;-70
2024/02/22 11:26:19;;;;;;;12.55;4.78;;;;;;;;;;5078418;28;20108;-70
2024/02/22 11:29:05;;;;;;;9.07;4.40;;;;;;;;;;5074665;28;20032;-70
2024/02/22 11:31:51;;;;;;;9.15;4.55;;;;;;;;;;5068344;28;20035;-70
2024/02/22 11:34:37;;;;;;;10.45;5.20;;;;;;;;;;5073513;28;20115;-70
2024/02/22 11:37:23;;;;;;;10.57;4.72;;;;;;;;;;5074950;28;20106;-70
2024/02/22 11:40:09;;;;;;;11.63;4.30;;;;;;;;;;5054590;28;20101;-70
2024/02/22 11:42:55;;;;;;;16.80;5.03;;;;;;;;;;5059211;28;20111;-70
2024/02/22 11:45:41;;;;;;;15.63;5.00;;;;;;;;;;5073766;28;20039;-70
2024/02/22 11:48:27;;;;;;;11.85;6.38;;;;;;;;;;5072085;28;20028;-70
2024/02/22 11:51:12;;;;;;;14.43;5.00;;;;;;;;;;5065866;28;20025;-70
2024/02/22 11:53:58;;;;;;;12.77;5.20;;;;;;;;;;5053770;28;20055;-70
2024/02/22 11:56:44;;;;;;;11.70;5.85;;;;;;;;;;5090442;28;20027;-70
2024/02/22 11:59:30;;;;;;;16.13;6.40;;;;;;;;;;5093689;28;20110;-70
2024/02/22 12:02:18;;;;;;;12.38;4.90;;;;;;;;;;5094371;28;20047;-70
2024/02/22 12:05:05;;;;;;;12.65;5.10;;;;;;;;;;5093616;28;20032;-70
2024/02/22 12:07:51;;;;;;;13.15;5.72;;;;;;;;;;5088361;28;20485;-70
2024/02/22 12:10:37;;;;;;;10.52;4.63;;;;;;;;;;5093378;28;20404;-70
2024/02/22 12:13:23;;;;;;;12.18;5.13;;;;;;;;;;5093139;28;20027;-70
2024/02/22 12:16:09;;;;;;;10.52;4.82;;;;;;;;;;5094530;28;20095;-70
2024/02/22 12:18:56;;;;;;;9.20;4.43;;;;;;;;;;5087368;28;20032;-70
2024/02/22 12:21:42;;;;;;;10.45;4.15;;;;;;;;;;5076458;28;20383;-70
2024/02/22 12:24:29;;;;;;;8.40;3.95;;;;;;;;;;5071833;28;20504;-70
2024/02/22 12:27:15;;;;;;;9.52;5.10;;;;;;;;;;5081513;23;20044;-70
2024/02/22 12:30:01;;;;;;;10.18;3.83;;;;;;;;;;5040573;28;20033;-70
2024/02/22 12:32:50;;;;;;;7.93;3.90;;;;;;;;;;5053739;28;20033;-69
2024/02/22 12:35:36;;;;;;;9.55;3.80;;;;;;;;;;5035367;28;20033;-70
2024/02/22 12:38:21;;;;;;;7.32;2.72;;;;;;;;;;5038945;28;20049;-70
2024/02/22 12:41:07;;;;;;;9.73;4.05;;;;;;;;;;5053063;28;20522;-70
2024/02/22 12:43:55;;;;;;;13.98;5.28;;;;;;;;;;5039211;28;20071;-70
2024/02/22 12:46:41;;;;;;;11.23;4.47;;;;;;;;;;5053976;28;20028;-70
2024/02/22 12:49:28;;;;;;;13.80;5.00;;;;;;;;;;5037313;28;20393;-70
2024/02/22 12:52:17;;;;;;;14.13;6.15;;;;;;;;;;5051784;28;20032;-70
2024/02/22 12:55:03;;;;;;;14.80;5.32;;;;;;;;;;5054003;28;20487;-70
2024/02/22 12:57:48;;;;;;;14.70;5.82;;;;;;;;;;5020030;28;20021;-70
2024/02/22 13:00:34;;;;;;;15.30;6.60;;;;;;;;;;5041419;28;20033;-70
2024/02/22 13:03:21;;;;;;;15.57;5.88;;;;;;;;;;5038410;28;20406;-70
2024/02/22 13:06:06;;;;;;;14.93;6.35;;;;;;;;;;5024691;28;20021;-70
2024/02/22 13:08:52;;;;;;;15.98;5.53;;;;;;;;;;5038315;28;20024;-70
2024/02/22 13:11:37;;;;;;;15.48;5.70;;;;;;;;;;5051862;28;20044;-70
2024/02/22 13:14:24;;;;;;;13.43;6.93;;;;;;;;;;5031427;28;20021;-70
2024/02/22 13:17:09;;;;;;;13.85;5.72;;;;;;;;;;5032251;28;20108;-70
2024/02/22 13:19:55;;;;;;;17.10;6.10;;;;;;;;;;5037811;28;20032;-70
2024/02/22 13:22:41;;;;;;;12.52;5.53;;;;;;;;;;5052841;28;20024;-71
2024/02/22 13:25:27;;;;;;;11.13;5.53;;;;;;;;;;5038452;28;20020;-70
2024/02/22 13:28:12;;;;;;;13.50;5.55;;;;;;;;;;5037789;28;20108;-70
2024/02/22 13:30:58;;;;;;;14.35;5.22;;;;;;;;;;5051444;28;20078;-71
2024/02/22 13:33:49;;;;;;;10.43;4.90;;;;;;;;;;5052547;28;20029;-71
2024/02/22 13:36:35;;;;;;;17.48;5.70;;;;;;;;;;5051374;28;20387;-71
2024/02/22 13:39:22;;;;;;;14.18;6.95;;;;;;;;;;5033311;28;20049;-70
2024/02/22 13:42:08;;;;;;;12.82;5.07;;;;;;;;;;5032687;28;20388;-70
2024/02/22 13:44:53;;;;;;;18.70;5.35;;;;;;;;;;5036960;28;20116;-70
2024/02/22 13:47:39;;;;;;;8.95;4.78;;;;;;;;;;5036990;28;20115;-70
2024/02/22 13:50:25;;;;;;;9.85;4.50;;;;;;;;;;5051310;28;20550;-70
2024/02/22 13:53:10;;;;;;;10.23;4.32;;;;;;;;;;5052909;28;20055;-70
2024/02/22 13:55:56;;;;;;;10.15;4.20;;;;;;;;;;5037277;28;20017;-70
2024/02/22 13:58:42;;;;;;;11.85;4.55;;;;;;;;;;5052734;28;20056;-70
2024/02/22 14:01:27;;;;;;;8.32;4.45;;;;;;;;;;5051674;28;20025;-70
2024/02/22 14:04:16;;;;;;;13.38;4.72;;;;;;;;;;5050868;28;20045;-70
2024/02/22 14:07:02;;;;;;;4.35;2.85;;;;;;;;;;5049204;28;20444;-70
2024/02/22 14:09:49;;;;;;;9.30;3.90;;;;;;;;;;5052769;28;20021;-71
2024/02/22 14:12:35;;;;;;;12.63;4.07;;;;;;;;;;5037325;28;20557;-70
2024/02/22 14:15:23;;;;;;;7.38;3.53;;;;;;;;;;5050690;28;20028;-71
2024/02/22 14:18:09;;;;;;;11.70;3.75;;;;;;;;;;5023559;28;20401;-71
2024/02/22 14:20:55;;;;;;;6.57;3.60;;;;;;;;;;5047417;28;20033;-70
2024/02/22 14:23:41;;;;;;;7.40;3.53;;;;;;;;;;5050610;28;20048;-70
2024/02/22 14:26:27;;;;;;;12.48;4.20;;;;;;;;;;5038493;28;20021;-71
2024/02/22 14:29:13;;;;;;;11.02;3.65;;;;;;;;;;5035810;28;20031;-70
2024/02/22 14:31:58;;;;;;;8.02;4.05;;;;;;;;;;5052503;28;20036;-70
2024/02/22 14:34:45;;;;;;;14.32;3.72;;;;;;;;;;5051239;28;20056;-70
2024/02/22 14:37:30;;;;;;;10.27;4.30;;;;;;;;;;5035501;28;20493;-70
2024/02/22 14:40:17;;;;;;;9.18;4.45;;;;;;;;;;5051761;28;20029;-70
2024/02/22 14:43:02;;;;;;;15.40;4.57;;;;;;;;;;5039394;28;20060;-70
2024/02/22 14:45:51;;;;;;;11.45;4.55;;;;;;;;;;5047493;28;20020;-72
2024/02/22 14:48:36;;;;;;;11.48;4.72;;;;;;;;;;5027201;28;20045;-70
2024/02/22 14:51:22;;;;;;;12.93;4.32;;;;;;;;;;5055771;28;20487;-71
2024/02/22 14:54:08;;;;;;;14.90;4.47;;;;;;;;;;5041107;28;20025;-70
2024/02/22 14:56:53;;;;;;;14.15;4.90;;;;;;;;;;5054351;28;20082;-70
2024/02/22 14:59:39;;;;;;;9.60;3.97;;;;;;;;;;5054848;28;20037;-70
2024/02/22 15:02:25;;;;;;;11.93;3.95;;;;;;;;;;5054853;28;20509;-70
2024/02/22 15:05:10;;;;;;;10.02;4.60;;;;;;;;;;5054981;28;20504;-70
2024/02/22 15:07:56;;;;;;;7.50;3.90;;;;;;;;;;5054451;28;20085;-70
2024/02/22 15:10:42;;;;;;;9.57;4.88;;;;;;;;;;5040296;28;20029;-70
2024/02/22 15:13:27;;;;;;;9.65;4.30;;;;;;;;;;5054212;28;20017;-70
2024/02/22 15:16:13;;;;;;;8.95;3.75;;;;;;;;;;5055082;28;20178;-70
2024/02/22 15:18:59;;;;;;;13.77;4.13;;;;;;;;;;5053855;28;20021;-70
2024/02/22 15:21:45;;;;;;;9.00;4.50;;;;;;;;;;5053631;28;20028;-71
2024/02/22 15:24:31;;;;;;;13.40;4.43;;;;;;;;;;5053967;28;20029;-70
2024/02/22 15:27:17;;;;;;;11.73;4.50;;;;;;;;;;5040651;28;20037;-70
2024/02/22 15:30:03;;;;;;;6.80;3.80;;;;;;;;;;5036940;28;20490;-70
2024/02/22 15:32:52;;;;;;;11.60;4.57;;;;;;;;;;5019334;28;20036;-70
2024/02/22 15:35:37;;;;;;;14.32;5.22;;;;;;;;;;5052085;28;20074;-70
2024/02/22 15:38:26;;;;;;;12.60;4.63;;;;;;;;;;5053471;28;20032;-71
2024/02/22 15:41:11;;;;;;;12.10;4.78;;;;;;;;;;5055606;28;20021;-70
2024/02/22 15:43:57;;;;;;;12.23;4.65;;;;;;;;;;5054066;28;20108;-70
2024/02/22 15:46:43;;;;;;;8.68;4.30;;;;;;;;;;5040173;28;20021;-71
2024/02/22 15:49:28;;;;;;;5.93;4.03;;;;;;;;;;5053998;28;20024;-71
2024/02/22 15:52:14;;;;;;;9.15;4.45;;;;;;;;;;5026077;28;20028;-70
2024/02/22 15:55:00;;;;;;;8.65;4.50;;;;;;;;;;5054015;28;20525;-71
2024/02/22 15:57:48;;;;;;;11.55;4.95;;;;;;;;;;5054328;28;20064;-71
2024/02/22 16:00:34;;;;;;;9.80;4.55;;;;;;;;;;5040686;28;20430;-70
2024/02/22 16:03:19;;;;;;;8.55;3.70;;;;;;;;;;5039655;28;20437;-70
2024/02/22 16:06:06;;;;;;;10.95;4.50;;;;;;;;;;5053820;28;20048;-72
2024/02/22 16:08:55;;;;;;;9.00;4.97;;;;;;;;;;5054777;28;20112;-71
2024/02/22 16:11:40;;;;;;;13.95;5.07;;;;;;;;;;5054323;28;20483;-70
2024/02/22 16:14:26;;;;;;;11.32;5.65;;;;;;;;;;5039047;28;20032;-70
2024/02/22 16:17:12;;;;;;;13.02;5.40;;;;;;;;;;5054118;28;20036;-70
2024/02/22 16:20:01;;;;;;;14.63;5.43;;;;;;;;;;5053529;28;20456;-70
2024/02/22 16:22:46;;;;;;;16.52;5.57;;;;;;;;;;5019134;28;20051;-70
2024/02/22 16:25:32;;;;;;;13.82;5.93;;;;;;;;;;5053544;28;20372;-70